createdAt,value
2023-05-06T00:00:11.198Z,36.23
2023-05-06T00:01:11.210Z,36.26
2023-05-06T00:02:11.207Z,36.25
2023-05-06T00:03:11.331Z,36.22
2023-05-06T00:04:11.275Z,36.19
2023-05-06T00:05:11.683Z,36.14
2023-05-06T00:06:11.217Z,36.22
2023-05-06T00:07:11.240Z,36.09
2023-05-06T00:08:11.263Z,36.10
2023-05-06T00:09:11.263Z,36.07
2023-05-06T00:10:11.351Z,36.19
2023-05-06T00:11:11.275Z,36.24
2023-05-06T00:12:11.302Z,36.21
2023-05-06T00:13:11.315Z,36.22
2023-05-06T00:14:11.335Z,36.13
2023-05-06T00:15:11.607Z,36.20
2023-05-06T00:16:11.421Z,36.03
2023-05-06T00:17:11.355Z,36.14
2023-05-06T00:18:11.334Z,36.14
2023-05-06T00:19:11.352Z,36.08
2023-05-06T00:20:11.382Z,36.07
2023-05-06T00:21:11.429Z,36.19
2023-05-06T00:22:11.449Z,36.09
2023-05-06T00:23:11.462Z,36.16
2023-05-06T00:24:11.444Z,36.10
2023-05-06T00:25:11.684Z,36.04
2023-05-06T00:26:11.458Z,36.05
2023-05-06T00:27:11.518Z,36.04
2023-05-06T00:28:11.528Z,36.05
2023-05-06T00:29:11.528Z,35.97
2023-05-06T00:30:11.554Z,36.00
2023-05-06T00:31:11.605Z,36.00
2023-05-06T00:32:11.678Z,35.95
2023-05-06T00:33:11.733Z,35.92
2023-05-06T00:34:11.627Z,36.01
2023-05-06T00:35:11.674Z,35.94
2023-05-06T00:36:11.623Z,35.96
2023-05-06T00:37:11.652Z,35.95
2023-05-06T00:38:11.601Z,35.97
2023-05-06T00:39:11.626Z,35.98
2023-05-06T00:40:11.617Z,35.99
2023-05-06T00:41:11.664Z,35.98
2023-05-06T00:42:11.682Z,36.03
2023-05-06T00:43:11.695Z,36.01
2023-05-06T00:44:11.705Z,36.02
2023-05-06T00:45:11.974Z,36.00
2023-05-06T00:46:11.806Z,36.17
2023-05-06T00:47:11.739Z,36.01
2023-05-06T00:48:11.797Z,35.97
2023-05-06T00:49:11.924Z,36.02
2023-05-06T00:50:11.857Z,36.05
2023-05-06T00:51:11.850Z,36.02
2023-05-06T00:52:11.850Z,36.20
2023-05-06T00:53:11.847Z,36.21
2023-05-06T00:54:11.881Z,36.28
2023-05-06T00:55:11.916Z,36.23
2023-05-06T00:56:11.935Z,36.34
2023-05-06T00:57:11.992Z,36.22
2023-05-06T00:58:11.931Z,36.34
2023-05-06T00:59:11.975Z,36.37
2023-05-06T01:00:12.003Z,36.42
2023-05-06T01:01:12.112Z,36.43
2023-05-06T01:02:12.118Z,36.47
2023-05-06T01:03:12.092Z,36.49
2023-05-06T01:04:12.054Z,36.51
2023-05-06T01:05:12.443Z,36.37
2023-05-06T01:06:12.093Z,36.43
2023-05-06T01:07:12.125Z,36.36
2023-05-06T01:08:12.176Z,36.49
2023-05-06T01:09:12.144Z,36.37
2023-05-06T01:10:12.184Z,36.50
2023-05-06T01:11:13.515Z,36.52
2023-05-06T01:12:12.156Z,36.61
2023-05-06T01:13:12.272Z,36.60
2023-05-06T01:14:12.099Z,36.56
2023-05-06T01:15:12.327Z,36.61
2023-05-06T01:16:12.014Z,36.56
2023-05-06T01:17:12.060Z,36.61
2023-05-06T01:18:11.991Z,36.56
2023-05-06T01:19:11.973Z,36.54
2023-05-06T01:20:11.907Z,36.57
2023-05-06T01:21:11.940Z,36.59
2023-05-06T01:22:11.914Z,36.60
2023-05-06T01:23:11.863Z,36.57
2023-05-06T01:24:11.796Z,36.62
2023-05-06T01:25:11.884Z,36.60
2023-05-06T01:26:11.757Z,36.54
2023-05-06T01:27:11.767Z,36.58
2023-05-06T01:28:11.736Z,36.53
2023-05-06T01:29:11.634Z,36.47
2023-05-06T01:30:11.650Z,36.37
2023-05-06T01:31:11.646Z,36.45
2023-05-06T01:32:11.601Z,36.30
2023-05-06T01:33:11.562Z,36.35
2023-05-06T01:34:11.532Z,36.30
2023-05-06T01:35:11.587Z,36.36
2023-05-06T01:36:11.440Z,36.33
2023-05-06T01:37:11.486Z,36.34
2023-05-06T01:38:11.341Z,36.39
2023-05-06T01:39:11.323Z,36.28
2023-05-06T01:40:11.271Z,36.36
2023-05-06T01:41:11.280Z,36.23
2023-05-06T01:42:11.220Z,36.27
2023-05-06T01:43:11.153Z,36.32
2023-05-06T01:44:11.168Z,36.40
2023-05-06T01:45:11.256Z,36.31
2023-05-06T01:46:11.100Z,36.22
2023-05-06T01:47:11.023Z,36.22
2023-05-06T01:48:11.030Z,36.23
2023-05-06T01:49:11.004Z,36.32
2023-05-06T01:50:10.931Z,36.23
2023-05-06T01:51:10.916Z,36.22
2023-05-06T01:52:10.883Z,36.28
2023-05-06T01:53:10.913Z,36.28
2023-05-06T01:54:10.826Z,36.18
2023-05-06T01:55:11.001Z,36.28
2023-05-06T01:56:10.752Z,36.19
2023-05-06T01:57:10.747Z,36.17
2023-05-06T01:58:10.691Z,36.16
2023-05-06T01:59:10.695Z,36.16
2023-05-06T02:00:10.625Z,36.20
2023-05-06T02:01:10.709Z,36.18
2023-05-06T02:02:10.703Z,36.13
2023-05-06T02:03:10.804Z,36.17
2023-05-06T02:04:10.727Z,36.27
2023-05-06T02:05:10.932Z,36.16
2023-05-06T02:06:10.743Z,36.14
2023-05-06T02:07:10.794Z,36.12
2023-05-06T02:08:10.804Z,36.11
2023-05-06T02:09:10.922Z,36.04
2023-05-06T02:10:10.838Z,36.06
2023-05-06T02:11:10.836Z,36.09
2023-05-06T02:12:10.891Z,36.02
2023-05-06T02:13:10.916Z,36.10
2023-05-06T02:14:10.915Z,36.13
2023-05-06T02:15:11.106Z,36.12
2023-05-06T02:16:10.949Z,36.11
2023-05-06T02:17:10.989Z,36.10
2023-05-06T02:18:10.972Z,36.04
2023-05-06T02:19:11.009Z,36.13
2023-05-06T02:20:11.037Z,36.08
2023-05-06T02:21:11.045Z,36.09
2023-05-06T02:22:11.036Z,36.02
2023-05-06T02:23:11.089Z,36.01
2023-05-06T02:24:11.059Z,36.09
2023-05-06T02:25:11.276Z,36.10
2023-05-06T02:26:11.141Z,36.03
2023-05-06T02:27:11.151Z,35.99
2023-05-06T02:28:11.165Z,36.03
2023-05-06T02:29:11.194Z,36.00
2023-05-06T02:30:11.190Z,35.97
2023-05-06T02:31:11.258Z,36.01
2023-05-06T02:32:11.224Z,35.97
2023-05-06T02:33:11.212Z,36.06
2023-05-06T02:34:11.268Z,35.94
2023-05-06T02:35:11.480Z,35.97
2023-05-06T02:36:11.297Z,35.89
2023-05-06T02:37:11.306Z,35.94
2023-05-06T02:38:11.306Z,35.92
2023-05-06T02:39:11.355Z,36.03
2023-05-06T02:40:11.409Z,36.02
2023-05-06T02:41:11.426Z,36.07
2023-05-06T02:42:11.426Z,36.12
2023-05-06T02:43:11.420Z,36.09
2023-05-06T02:44:11.388Z,36.10
2023-05-06T02:45:11.633Z,36.08
2023-05-06T02:46:11.494Z,36.07
2023-05-06T02:47:11.463Z,36.11
2023-05-06T02:48:11.443Z,35.95
2023-05-06T02:49:11.445Z,36.03
2023-05-06T02:50:11.471Z,35.98
2023-05-06T02:51:11.472Z,36.04
2023-05-06T02:52:11.484Z,36.12
2023-05-06T02:53:11.498Z,36.11
2023-05-06T02:54:11.504Z,36.23
2023-05-06T02:55:11.658Z,36.19
2023-05-06T02:56:11.571Z,36.20
2023-05-06T02:57:11.612Z,36.19
2023-05-06T02:58:11.618Z,36.23
2023-05-06T02:59:11.552Z,36.21
2023-05-06T03:00:11.589Z,36.23
2023-05-06T03:01:11.639Z,36.24
2023-05-06T03:02:11.599Z,36.27
2023-05-06T03:03:11.593Z,36.34
2023-05-06T03:04:11.603Z,36.32
2023-05-06T03:05:11.737Z,36.31
2023-05-06T03:06:11.580Z,36.35
2023-05-06T03:07:11.596Z,36.35
2023-05-06T03:08:11.590Z,36.38
2023-05-06T03:09:11.650Z,36.32
2023-05-06T03:10:11.634Z,36.39
2023-05-06T03:11:11.632Z,36.33
2023-05-06T03:12:11.638Z,36.41
2023-05-06T03:13:11.742Z,36.38
2023-05-06T03:14:11.675Z,36.30
2023-05-06T03:15:11.782Z,36.40
2023-05-06T03:16:11.718Z,36.27
2023-05-06T03:17:11.668Z,36.32
2023-05-06T03:18:11.710Z,36.28
2023-05-06T03:19:11.684Z,36.37
2023-05-06T03:20:11.677Z,36.33
2023-05-06T03:21:11.744Z,36.36
2023-05-06T03:22:11.715Z,36.34
2023-05-06T03:23:11.713Z,36.22
2023-05-06T03:24:11.769Z,36.26
2023-05-06T03:25:11.973Z,36.27
2023-05-06T03:26:11.740Z,36.32
2023-05-06T03:27:11.757Z,36.17
2023-05-06T03:28:11.765Z,36.15
2023-05-06T03:29:11.940Z,36.12
2023-05-06T03:30:11.781Z,36.12
2023-05-06T03:31:11.788Z,36.13
2023-05-06T03:32:11.838Z,36.15
2023-05-06T03:33:11.838Z,36.22
2023-05-06T03:34:11.898Z,36.13
2023-05-06T03:35:12.086Z,36.19
2023-05-06T03:36:11.880Z,36.15
2023-05-06T03:37:11.922Z,36.14
2023-05-06T03:38:11.915Z,36.06
2023-05-06T03:39:11.954Z,36.02
2023-05-06T03:40:11.994Z,35.99
2023-05-06T03:41:11.988Z,36.04
2023-05-06T03:42:11.999Z,35.97
2023-05-06T03:43:11.985Z,35.99
2023-05-06T03:44:12.024Z,36.00
2023-05-06T03:45:12.565Z,36.04
2023-05-06T03:46:12.073Z,36.08
2023-05-06T03:47:12.065Z,35.92
2023-05-06T03:48:12.128Z,35.95
2023-05-06T03:49:12.109Z,35.93
2023-05-06T03:50:12.156Z,36.00
2023-05-06T03:51:12.159Z,35.95
2023-05-06T03:52:12.184Z,35.92
2023-05-06T03:53:12.206Z,35.95
2023-05-06T03:54:12.189Z,36.01
2023-05-06T03:55:12.401Z,35.97
2023-05-06T03:56:12.185Z,35.95
2023-05-06T03:57:12.227Z,35.95
2023-05-06T03:58:12.245Z,35.89
2023-05-06T03:59:12.259Z,35.84
2023-05-06T04:00:12.279Z,35.80
2023-05-06T04:01:12.431Z,35.81
2023-05-06T04:02:12.360Z,35.81
2023-05-06T04:03:12.427Z,35.84
2023-05-06T04:04:12.518Z,35.87
2023-05-06T04:05:12.458Z,35.87
2023-05-06T04:06:12.394Z,35.90
2023-05-06T04:07:12.444Z,35.84
2023-05-06T04:08:12.492Z,35.91
2023-05-06T04:09:12.488Z,35.86
2023-05-06T04:10:12.503Z,35.84
2023-05-06T04:11:12.513Z,35.82
2023-05-06T04:12:12.525Z,35.85
2023-05-06T04:13:12.584Z,35.91
2023-05-06T04:14:12.551Z,35.82
2023-05-06T04:15:12.728Z,35.88
2023-05-06T04:16:12.648Z,35.86
2023-05-06T04:17:12.645Z,35.86
2023-05-06T04:18:12.586Z,35.91
2023-05-06T04:19:12.606Z,35.95
2023-05-06T04:20:12.603Z,35.99
2023-05-06T04:21:12.613Z,36.02
2023-05-06T04:22:12.611Z,35.99
2023-05-06T04:23:12.598Z,36.07
2023-05-06T04:24:12.598Z,36.09
2023-05-06T04:25:12.747Z,36.09
2023-05-06T04:26:12.605Z,36.11
2023-05-06T04:27:12.614Z,36.15
2023-05-06T04:28:12.607Z,36.11
2023-05-06T04:29:12.600Z,36.14
2023-05-06T04:30:12.659Z,36.18
2023-05-06T04:31:12.616Z,36.16
2023-05-06T04:32:12.626Z,36.16
2023-05-06T04:33:12.697Z,36.13
2023-05-06T04:34:12.596Z,36.17
2023-05-06T04:35:12.705Z,36.18
2023-05-06T04:36:12.610Z,36.16
2023-05-06T04:37:12.618Z,36.19
2023-05-06T04:38:12.622Z,36.12
2023-05-06T04:39:12.615Z,36.16
2023-05-06T04:40:12.605Z,36.11
2023-05-06T04:41:12.628Z,36.11
2023-05-06T04:42:12.660Z,36.16
2023-05-06T04:43:12.656Z,36.17
2023-05-06T04:44:12.674Z,36.15
2023-05-06T04:45:12.671Z,36.14
2023-05-06T04:46:12.711Z,36.15
2023-05-06T04:47:12.643Z,36.19
2023-05-06T04:48:12.637Z,36.14
2023-05-06T04:49:12.807Z,36.18
2023-05-06T04:50:12.644Z,36.18
2023-05-06T04:51:12.613Z,36.13
2023-05-06T04:52:12.578Z,36.18
2023-05-06T04:53:12.614Z,36.04
2023-05-06T04:54:12.652Z,36.02
2023-05-06T04:55:12.906Z,36.01
2023-05-06T04:56:12.649Z,36.01
2023-05-06T04:57:12.655Z,35.98
2023-05-06T04:58:12.648Z,35.99
2023-05-06T04:59:13.227Z,35.95
2023-05-06T05:00:12.700Z,35.98
2023-05-06T05:01:12.686Z,35.99
2023-05-06T05:02:12.660Z,35.95
2023-05-06T05:03:12.814Z,35.96
2023-05-06T05:04:12.662Z,36.04
2023-05-06T05:05:12.854Z,35.96
2023-05-06T05:06:12.670Z,35.96
2023-05-06T05:07:12.691Z,36.04
2023-05-06T05:08:12.683Z,36.08
2023-05-06T05:09:12.672Z,36.00
2023-05-06T05:10:12.675Z,36.02
2023-05-06T05:11:12.711Z,35.98
2023-05-06T05:12:12.766Z,35.96
2023-05-06T05:13:12.718Z,35.96
2023-05-06T05:14:12.728Z,35.97
2023-05-06T05:15:12.953Z,35.93
2023-05-06T05:16:12.757Z,36.07
2023-05-06T05:17:12.828Z,35.95
2023-05-06T05:18:12.849Z,35.93
2023-05-06T05:19:12.812Z,35.97
2023-05-06T05:20:12.816Z,35.93
2023-05-06T05:21:12.903Z,35.91
2023-05-06T05:22:12.889Z,35.98
2023-05-06T05:23:12.830Z,35.97
2023-05-06T05:24:12.877Z,35.93
2023-05-06T05:25:13.200Z,35.94
2023-05-06T05:26:12.857Z,35.95
2023-05-06T05:27:12.860Z,35.98
2023-05-06T05:28:12.815Z,35.99
2023-05-06T05:29:13.732Z,35.95
2023-05-06T05:30:12.813Z,36.00
2023-05-06T05:31:12.821Z,36.00
2023-05-06T05:32:12.810Z,36.05
2023-05-06T05:33:12.851Z,36.00
2023-05-06T05:34:12.789Z,36.07
2023-05-06T05:35:12.826Z,36.03
2023-05-06T05:36:12.787Z,36.07
2023-05-06T05:37:12.853Z,36.02
2023-05-06T05:38:12.789Z,36.07
2023-05-06T05:39:12.774Z,36.10
2023-05-06T05:40:12.782Z,36.12
2023-05-06T05:41:13.127Z,36.14
2023-05-06T05:42:12.820Z,36.07
2023-05-06T05:43:12.828Z,36.08
2023-05-06T05:44:12.777Z,36.07
2023-05-06T05:45:12.783Z,36.02
2023-05-06T05:46:12.818Z,36.06
2023-05-06T05:47:12.798Z,35.98
2023-05-06T05:48:12.730Z,35.97
2023-05-06T05:49:12.722Z,35.99
2023-05-06T05:50:12.716Z,35.94
2023-05-06T05:51:12.726Z,35.91
2023-05-06T05:52:12.767Z,35.91
2023-05-06T05:53:12.753Z,35.92
2023-05-06T05:54:12.800Z,35.91
2023-05-06T05:55:13.738Z,35.93
2023-05-06T05:56:12.812Z,35.91
2023-05-06T05:57:12.781Z,35.89
2023-05-06T05:58:12.825Z,36.06
2023-05-06T05:59:12.804Z,35.94
2023-05-06T06:00:13.732Z,35.86
2023-05-06T06:01:12.789Z,35.91
2023-05-06T06:02:12.847Z,35.94
2023-05-06T06:03:12.960Z,35.84
2023-05-06T06:04:12.910Z,35.81
2023-05-06T06:05:12.882Z,35.82
2023-05-06T06:06:12.885Z,35.82
2023-05-06T06:07:12.936Z,35.86
2023-05-06T06:08:12.894Z,35.82
2023-05-06T06:09:12.929Z,35.76
2023-05-06T06:10:12.952Z,35.76
2023-05-06T06:11:12.951Z,35.84
2023-05-06T06:12:12.948Z,35.74
2023-05-06T06:13:12.957Z,35.75
2023-05-06T06:14:12.993Z,35.74
2023-05-06T06:15:12.965Z,35.82
2023-05-06T06:16:13.144Z,35.72
2023-05-06T06:17:13.062Z,35.69
2023-05-06T06:18:13.058Z,35.98
2023-05-06T06:19:13.039Z,35.92
2023-05-06T06:20:13.755Z,35.93
2023-05-06T06:21:13.085Z,35.90
2023-05-06T06:22:13.112Z,35.94
2023-05-06T06:23:13.104Z,35.99
2023-05-06T06:24:13.101Z,35.97
2023-05-06T06:25:13.255Z,35.98
2023-05-06T06:26:13.149Z,35.89
2023-05-06T06:27:13.193Z,35.98
2023-05-06T06:28:13.135Z,35.95
2023-05-06T06:29:13.177Z,35.95
2023-05-06T06:30:13.176Z,35.88
2023-05-06T06:31:13.195Z,35.93
2023-05-06T06:32:13.285Z,35.88
2023-05-06T06:33:13.197Z,35.95
2023-05-06T06:34:13.208Z,35.91
2023-05-06T06:35:13.248Z,35.99
2023-05-06T06:36:13.257Z,36.04
2023-05-06T06:37:13.247Z,36.06
2023-05-06T06:38:13.243Z,36.02
2023-05-06T06:39:13.252Z,36.00
2023-05-06T06:40:13.290Z,36.00
2023-05-06T06:41:13.315Z,36.00
2023-05-06T06:42:13.297Z,36.04
2023-05-06T06:43:13.266Z,36.10
2023-05-06T06:44:13.235Z,36.11
2023-05-06T06:45:13.316Z,36.06
2023-05-06T06:46:13.297Z,36.09
2023-05-06T06:47:13.229Z,36.13
2023-05-06T06:48:13.277Z,36.05
2023-05-06T06:49:13.277Z,36.09
2023-05-06T06:50:13.254Z,36.11
2023-05-06T06:51:13.249Z,36.16
2023-05-06T06:52:13.273Z,36.13
2023-05-06T06:53:13.269Z,36.21
2023-05-06T06:54:13.282Z,36.13
2023-05-06T06:55:13.427Z,36.13
2023-05-06T06:56:13.283Z,36.15
2023-05-06T06:57:13.337Z,36.19
2023-05-06T06:58:13.305Z,36.20
2023-05-06T06:59:13.245Z,36.21
2023-05-06T07:00:13.262Z,36.19
2023-05-06T07:01:13.300Z,36.26
2023-05-06T07:02:13.292Z,36.24
2023-05-06T07:03:13.258Z,36.25
2023-05-06T07:04:13.329Z,36.19
2023-05-06T07:05:13.368Z,36.20
2023-05-06T07:06:13.267Z,36.23
2023-05-06T07:07:13.275Z,36.17
2023-05-06T07:08:13.244Z,36.16
2023-05-06T07:09:13.265Z,36.13
2023-05-06T07:10:13.275Z,36.10
2023-05-06T07:11:13.264Z,36.08
2023-05-06T07:12:13.272Z,36.09
2023-05-06T07:13:13.533Z,36.10
2023-05-06T07:14:13.264Z,36.05
2023-05-06T07:15:13.518Z,36.04
2023-05-06T07:16:13.264Z,36.01
2023-05-06T07:17:13.315Z,36.02
2023-05-06T07:18:13.329Z,36.04
2023-05-06T07:19:13.295Z,36.04
2023-05-06T07:20:13.345Z,36.02
2023-05-06T07:21:13.306Z,36.09
2023-05-06T07:22:13.306Z,36.01
2023-05-06T07:23:13.318Z,36.01
2023-05-06T07:24:13.313Z,36.02
2023-05-06T07:25:13.408Z,36.01
2023-05-06T07:26:13.332Z,36.00
2023-05-06T07:27:13.350Z,35.93
2023-05-06T07:28:13.331Z,35.96
2023-05-06T07:29:13.425Z,35.98
2023-05-06T07:30:13.294Z,35.93
2023-05-06T07:31:13.380Z,35.87
2023-05-06T07:32:13.290Z,35.87
2023-05-06T07:33:13.306Z,35.80
2023-05-06T07:34:13.294Z,35.83
2023-05-06T07:35:13.339Z,35.83
2023-05-06T07:36:13.247Z,35.81
2023-05-06T07:37:13.270Z,35.88
2023-05-06T07:38:13.257Z,35.78
2023-05-06T07:39:13.266Z,35.78
2023-05-06T07:40:13.280Z,35.76
2023-05-06T07:41:13.268Z,35.78
2023-05-06T07:42:13.283Z,35.79
2023-05-06T07:43:13.286Z,35.82
2023-05-06T07:44:13.248Z,35.76
2023-05-06T07:45:13.449Z,35.78
2023-05-06T07:46:13.312Z,35.73
2023-05-06T07:47:13.309Z,35.77
2023-05-06T07:48:13.369Z,35.68
2023-05-06T07:49:13.266Z,35.76
2023-05-06T07:50:13.317Z,35.61
2023-05-06T07:51:13.317Z,35.58
2023-05-06T07:52:13.347Z,35.61
2023-05-06T07:53:13.331Z,35.61
2023-05-06T07:54:13.357Z,35.65
2023-05-06T07:55:13.631Z,35.66
2023-05-06T07:56:13.378Z,35.62
2023-05-06T07:57:13.465Z,35.60
2023-05-06T07:58:13.408Z,35.65
2023-05-06T07:59:13.417Z,35.54
2023-05-06T08:00:13.429Z,35.59
2023-05-06T08:01:13.519Z,35.67
2023-05-06T08:02:13.507Z,35.61
2023-05-06T08:03:13.540Z,35.55
2023-05-06T08:04:13.712Z,35.61
2023-05-06T08:05:13.511Z,35.61
2023-05-06T08:06:13.477Z,35.49
2023-05-06T08:07:13.529Z,35.40
2023-05-06T08:08:13.529Z,35.41
2023-05-06T08:09:22.004Z,35.55
2023-05-06T08:10:14.504Z,35.63
2023-05-06T08:11:13.442Z,35.50
2023-05-06T08:12:13.434Z,35.65
2023-05-06T08:13:13.487Z,35.65
2023-05-06T08:14:13.337Z,35.59
2023-05-06T08:15:13.407Z,35.75
2023-05-06T08:16:13.284Z,35.60
2023-05-06T08:17:13.265Z,35.53
2023-05-06T08:18:21.530Z,35.50
2023-05-06T08:19:14.113Z,36.14
2023-05-06T08:20:13.057Z,35.71
2023-05-06T08:21:13.052Z,35.52
2023-05-06T08:22:12.997Z,35.55
2023-05-06T08:23:12.953Z,35.45
2023-05-06T08:24:12.890Z,35.41
2023-05-06T08:25:12.996Z,35.30
2023-05-06T08:26:12.793Z,35.54
2023-05-06T08:27:12.764Z,35.62
2023-05-06T08:28:12.720Z,35.54
2023-05-06T08:29:12.678Z,35.35
2023-05-06T08:30:12.722Z,35.25
2023-05-06T08:31:12.768Z,35.26
2023-05-06T08:32:12.741Z,35.28
2023-05-06T08:33:12.794Z,35.27
2023-05-06T08:34:12.798Z,35.29
2023-05-06T08:35:12.977Z,35.31
2023-05-06T08:36:12.797Z,35.23
2023-05-06T08:37:12.793Z,35.20
2023-05-06T08:38:12.805Z,35.25
2023-05-06T08:39:12.762Z,35.20
2023-05-06T08:40:12.777Z,35.21
2023-05-06T08:41:12.792Z,35.22
2023-05-06T08:42:12.835Z,35.24
2023-05-06T08:43:12.835Z,35.26
2023-05-06T08:44:12.785Z,35.27
2023-05-06T08:45:12.866Z,35.28
2023-05-06T08:46:12.810Z,35.33
2023-05-06T08:47:12.809Z,35.34
2023-05-06T08:48:12.852Z,35.38
2023-05-06T08:49:12.852Z,35.36
2023-05-06T08:50:12.877Z,35.42
2023-05-06T08:51:12.849Z,35.43
2023-05-06T08:52:12.801Z,35.42
2023-05-06T08:53:12.807Z,35.35
2023-05-06T08:54:12.803Z,35.37
2023-05-06T08:55:13.109Z,35.39
2023-05-06T08:56:12.886Z,35.42
2023-05-06T08:57:12.888Z,35.45
2023-05-06T08:58:12.885Z,35.41
2023-05-06T08:59:12.880Z,35.47
2023-05-06T09:00:12.915Z,35.52
2023-05-06T09:01:12.911Z,35.49
2023-05-06T09:02:12.938Z,35.49
2023-05-06T09:03:13.061Z,35.52
2023-05-06T09:04:12.896Z,35.53
2023-05-06T09:05:13.157Z,35.58
2023-05-06T09:06:12.930Z,35.57
2023-05-06T09:07:12.910Z,35.60
2023-05-06T09:08:12.910Z,35.59
2023-05-06T09:09:12.899Z,35.60
2023-05-06T09:10:12.886Z,35.67
2023-05-06T09:11:12.924Z,35.68
2023-05-06T09:12:12.900Z,35.62
2023-05-06T09:13:13.020Z,35.66
2023-05-06T09:14:12.909Z,35.69
2023-05-06T09:15:13.181Z,35.68
2023-05-06T09:16:12.989Z,35.75
2023-05-06T09:17:12.966Z,35.77
2023-05-06T09:18:13.041Z,35.82
2023-05-06T09:19:12.959Z,35.85
2023-05-06T09:20:12.922Z,35.93
2023-05-06T09:21:12.902Z,35.91
2023-05-06T09:22:12.938Z,35.97
2023-05-06T09:23:12.944Z,36.03
2023-05-06T09:24:12.914Z,35.99
2023-05-06T09:25:13.073Z,36.03
2023-05-06T09:26:12.921Z,36.02
2023-05-06T09:27:15.066Z,36.05
2023-05-06T09:28:12.938Z,36.11
2023-05-06T09:29:12.943Z,36.20
2023-05-06T09:30:12.877Z,36.28
2023-05-06T09:31:12.915Z,36.25
2023-05-06T09:32:12.892Z,36.29
2023-05-06T09:33:12.942Z,36.26
2023-05-06T09:34:12.920Z,36.30
2023-05-06T09:35:13.133Z,36.42
2023-05-06T09:36:12.884Z,36.45
2023-05-06T09:37:12.875Z,36.46
2023-05-06T09:38:12.941Z,36.40
2023-05-06T09:39:12.834Z,36.48
2023-05-06T09:40:12.847Z,36.50
2023-05-06T09:41:12.822Z,36.57
2023-05-06T09:42:12.871Z,36.65
2023-05-06T09:43:12.813Z,36.68
2023-05-06T09:44:12.864Z,36.68
2023-05-06T09:45:12.939Z,36.69
2023-05-06T09:46:12.826Z,36.77
2023-05-06T09:47:12.782Z,36.83
2023-05-06T09:48:12.811Z,36.89
2023-05-06T09:49:12.770Z,36.94
2023-05-06T09:50:12.717Z,36.94
2023-05-06T09:51:12.696Z,36.90
2023-05-06T09:52:12.737Z,36.96
2023-05-06T09:53:12.741Z,37.02
2023-05-06T09:54:12.680Z,36.97
2023-05-06T09:55:12.914Z,36.99
2023-05-06T09:56:12.655Z,36.97
2023-05-06T09:57:12.640Z,36.89
2023-05-06T09:58:12.599Z,36.89
2023-05-06T09:59:12.594Z,36.86
2023-05-06T10:00:12.678Z,36.84
2023-05-06T10:01:15.195Z,36.88
2023-05-06T10:02:13.582Z,36.93
2023-05-06T10:03:12.619Z,36.97
2023-05-06T10:04:12.567Z,36.88
2023-05-06T10:05:12.673Z,36.86
2023-05-06T10:06:12.335Z,36.88
2023-05-06T10:07:12.306Z,36.84
2023-05-06T10:08:12.292Z,36.82
2023-05-06T10:09:12.222Z,36.85
2023-05-06T10:10:12.287Z,36.83
2023-05-06T10:11:12.215Z,36.81
2023-05-06T10:12:12.112Z,36.69
2023-05-06T10:13:12.147Z,36.71
2023-05-06T10:14:12.036Z,36.71
2023-05-06T10:15:12.183Z,36.66
2023-05-06T10:16:14.556Z,36.70
2023-05-06T10:17:11.957Z,36.65
2023-05-06T10:18:11.821Z,36.61
2023-05-06T10:19:11.800Z,36.61
2023-05-06T10:20:11.730Z,36.64
2023-05-06T10:21:11.703Z,36.58
2023-05-06T10:22:11.642Z,36.54
2023-05-06T10:23:11.591Z,36.62
2023-05-06T10:24:11.647Z,36.63
2023-05-06T10:25:11.687Z,36.54
2023-05-06T10:26:11.499Z,36.54
2023-05-06T10:27:11.437Z,36.41
2023-05-06T10:28:23.011Z,36.47
2023-05-06T10:29:12.356Z,36.41
2023-05-06T10:30:11.271Z,36.35
2023-05-06T10:31:11.283Z,36.52
2023-05-06T10:32:11.171Z,36.40
2023-05-06T10:33:11.128Z,36.39
2023-05-06T10:34:11.126Z,36.43
2023-05-06T10:35:11.265Z,36.43
2023-05-06T10:36:11.067Z,36.41
2023-05-06T10:37:10.960Z,36.45
2023-05-06T10:38:10.912Z,36.28
2023-05-06T10:39:10.913Z,36.38
2023-05-06T10:40:10.932Z,36.11
2023-05-06T10:41:10.968Z,36.10
2023-05-06T10:42:10.927Z,36.12
2023-05-06T10:43:10.896Z,36.41
2023-05-06T10:44:10.920Z,36.29
2023-05-06T10:45:11.120Z,36.22
2023-05-06T10:46:10.988Z,36.21
2023-05-06T10:47:10.890Z,36.19
2023-05-06T10:48:10.957Z,36.07
2023-05-06T10:49:11.015Z,36.28
2023-05-06T10:50:10.894Z,36.14
2023-05-06T10:51:10.906Z,36.10
2023-05-06T10:52:10.912Z,36.14
2023-05-06T10:53:10.913Z,36.11
2023-05-06T10:54:10.897Z,36.04
2023-05-06T10:55:11.055Z,36.03
2023-05-06T10:56:10.925Z,36.12
2023-05-06T10:57:10.959Z,36.00
2023-05-06T10:58:10.899Z,35.99
2023-05-06T10:59:10.899Z,35.95
2023-05-06T11:00:10.904Z,35.91
2023-05-06T11:01:10.942Z,36.02
2023-05-06T11:02:10.918Z,35.96
2023-05-06T11:03:11.000Z,35.86
2023-05-06T11:04:10.913Z,35.91
2023-05-06T11:05:11.085Z,35.87
2023-05-06T11:06:10.888Z,35.83
2023-05-06T11:07:10.937Z,35.83
2023-05-06T11:08:10.918Z,35.94
2023-05-06T11:09:10.918Z,35.86
2023-05-06T11:10:10.935Z,35.81
2023-05-06T11:11:10.911Z,35.85
2023-05-06T11:12:10.883Z,35.77
2023-05-06T11:13:11.051Z,35.74
2023-05-06T11:14:10.924Z,35.72
2023-05-06T11:15:11.133Z,35.73
2023-05-06T11:16:10.925Z,35.73
2023-05-06T11:17:10.964Z,35.75
2023-05-06T11:18:10.924Z,35.76
2023-05-06T11:19:10.911Z,35.71
2023-05-06T11:20:11.194Z,35.69
2023-05-06T11:21:10.890Z,35.72
2023-05-06T11:22:10.953Z,35.71
2023-05-06T11:23:10.883Z,35.70
2023-05-06T11:24:10.873Z,35.63
2023-05-06T11:25:10.878Z,35.66
2023-05-06T11:26:10.886Z,35.60
2023-05-06T11:27:10.848Z,35.69
2023-05-06T11:28:10.873Z,35.65
2023-05-06T11:29:10.945Z,35.64
2023-05-06T11:30:11.088Z,35.62
2023-05-06T11:31:10.860Z,35.60
2023-05-06T11:32:10.833Z,35.59
2023-05-06T11:33:10.846Z,35.53
2023-05-06T11:34:10.853Z,35.50
2023-05-06T11:35:10.853Z,35.51
2023-05-06T11:36:10.810Z,35.43
2023-05-06T11:37:10.822Z,35.43
2023-05-06T11:38:10.923Z,35.40
2023-05-06T11:39:10.808Z,35.43
2023-05-06T11:40:11.090Z,35.41
2023-05-06T11:41:10.829Z,35.41
2023-05-06T11:42:10.828Z,35.37
2023-05-06T11:43:10.837Z,35.31
2023-05-06T11:44:11.635Z,35.32
2023-05-06T11:45:10.857Z,35.35
2023-05-06T11:46:10.862Z,35.32
2023-05-06T11:47:10.821Z,35.39
2023-05-06T11:48:10.817Z,35.53
2023-05-06T11:49:10.792Z,35.44
2023-05-06T11:50:11.094Z,35.36
2023-05-06T11:51:10.815Z,35.50
2023-05-06T11:52:10.861Z,35.40
2023-05-06T11:53:10.805Z,35.24
2023-05-06T11:54:10.824Z,35.17
2023-05-06T11:55:10.788Z,35.20
2023-05-06T11:56:10.836Z,35.25
2023-05-06T11:57:10.811Z,35.18
2023-05-06T11:58:10.805Z,35.16
2023-05-06T11:59:10.788Z,35.14
2023-05-06T12:00:10.926Z,35.14
2023-05-06T12:01:10.771Z,35.11
2023-05-06T12:02:10.773Z,35.13
2023-05-06T12:03:10.815Z,35.21
2023-05-06T12:04:10.843Z,35.05
2023-05-06T12:05:10.799Z,35.00
2023-05-06T12:06:10.752Z,35.06
2023-05-06T12:07:10.844Z,35.13
2023-05-06T12:08:20.040Z,35.08
2023-05-06T12:09:11.731Z,35.06
2023-05-06T12:10:10.846Z,34.94
2023-05-06T12:11:10.613Z,34.96
2023-05-06T12:12:10.566Z,34.96
2023-05-06T12:13:10.526Z,34.97
2023-05-06T12:14:10.470Z,35.00
2023-05-06T12:15:10.442Z,34.99
2023-05-06T12:16:10.373Z,34.92
2023-05-06T12:17:10.449Z,34.92
2023-05-06T12:18:10.261Z,34.83
2023-05-06T12:19:10.243Z,34.91
2023-05-06T12:20:10.360Z,34.87
2023-05-06T12:21:10.132Z,34.92
2023-05-06T12:22:10.111Z,34.92
2023-05-06T12:23:10.170Z,34.93
2023-05-06T12:24:10.180Z,34.90
2023-05-06T12:25:10.272Z,34.91
2023-05-06T12:26:10.146Z,34.92
2023-05-06T12:27:10.116Z,34.93
2023-05-06T12:28:10.184Z,34.81
2023-05-06T12:29:10.118Z,34.69
2023-05-06T12:30:10.220Z,34.72
2023-05-06T12:31:10.109Z,34.62
2023-05-06T12:32:10.518Z,34.66
2023-05-06T12:33:10.145Z,34.53
2023-05-06T12:34:10.130Z,34.59
2023-05-06T12:35:10.079Z,34.62
2023-05-06T12:36:10.095Z,34.47
2023-05-06T12:37:10.073Z,34.48
2023-05-06T12:38:10.095Z,34.57
2023-05-06T12:39:10.107Z,34.60
2023-05-06T12:40:10.258Z,34.65
2023-05-06T12:41:10.107Z,34.51
2023-05-06T12:42:10.077Z,34.50
2023-05-06T12:43:10.058Z,34.48
2023-05-06T12:44:10.081Z,34.44
2023-05-06T12:45:10.042Z,34.54
2023-05-06T12:46:10.086Z,34.42
2023-05-06T12:47:10.085Z,34.37
2023-05-06T12:48:10.106Z,34.35
2023-05-06T12:49:10.155Z,34.31
2023-05-06T12:50:10.241Z,34.28
2023-05-06T12:51:10.020Z,34.29
2023-05-06T12:52:10.011Z,34.25